Time;durP1;ratioP1;P1;durP2;ratioP2;P2;SDS_P1;SDS_P2;PMS_P1;PMS_P2;Temp;Humidity;BMP_temperature;BMP_pressure;BME280_temperature;BME280_humidity;BME280_pressure;Samples;Min_cycle;Max_cycle;Signal;HPM_P1;HPM_P2
2022/09/11 00:00:12;;;;;;;1.75;1.30;;;15.60;88.30;;;;;;5112796;28;20131;-75
2022/09/11 00:02:37;;;;;;;2.65;1.70;;;15.60;88.30;;;;;;5132207;28;20039;-76
2022/09/11 00:05:03;;;;;;;2.33;1.52;;;15.60;88.40;;;;;;5133307;28;20055;-76
2022/09/11 00:07:29;;;;;;;2.47;1.40;;;15.60;88.40;;;;;;5133229;28;20044;-76
2022/09/11 00:09:55;;;;;;;1.27;1.10;;;15.60;88.40;;;;;;5115631;28;20035;-76
2022/09/11 00:12:21;;;;;;;3.33;1.77;;;15.60;88.50;;;;;;5115170;28;20188;-76
2022/09/11 00:14:46;;;;;;;4.50;2.10;;;15.50;88.40;;;;;;5132460;28;20042;-76
2022/09/11 00:17:14;;;;;;;2.88;1.70;;;15.50;88.50;;;;;;5131415;28;20047;-77
2022/09/11 00:19:41;;;;;;;1.95;1.40;;;15.50;88.50;;;;;;5129801;28;20059;-79
2022/09/11 00:22:08;;;;;;;3.60;1.77;;;15.50;88.50;;;;;;5102153;28;20047;-79
2022/09/11 00:24:34;;;;;;;1.38;1.15;;;15.60;88.60;;;;;;5122533;28;20043;-78
2022/09/11 00:26:59;;;;;;;3.03;1.83;;;15.50;88.60;;;;;;5100501;28;20057;-79
2022/09/11 00:29:26;;;;;;;2.53;1.70;;;15.40;88.50;;;;;;5110280;28;20115;-77
2022/09/11 00:31:52;;;;;;;2.38;1.60;;;15.40;88.60;;;;;;5117636;28;20541;-79
2022/09/11 00:34:17;;;;;;;2.75;1.65;;;15.40;88.60;;;;;;5086363;28;20067;-78
2022/09/11 00:36:43;;;;;;;2.42;1.60;;;15.50;88.70;;;;;;5100689;28;20051;-77
2022/09/11 00:39:11;;;;;;;2.45;1.65;;;15.40;88.70;;;;;;5119589;28;20023;-79
2022/09/11 00:41:39;;;;;;;2.50;1.60;;;15.40;88.70;;;;;;5118743;28;20066;-78
2022/09/11 00:44:27;;;;;;;2.17;1.38;;;15.30;88.70;;;;;;5097342;28;20047;-77
2022/09/11 00:46:55;;;;;;;2.08;1.25;;;15.30;88.70;;;;;;5115516;28;20519;-78
2022/09/11 00:49:26;;;;;;;1.83;1.42;;;15.30;88.70;;;;;;5093662;28;20102;-77
2022/09/11 00:51:57;;;;;;;1.85;1.30;;;15.40;88.70;;;;;;5118685;28;20581;-75
2022/09/11 00:54:28;;;;;;;2.20;1.60;;;15.30;88.70;;;;;;5098081;28;20105;-77
2022/09/11 00:56:58;;;;;;;3.38;1.92;;;15.30;88.80;;;;;;5114795;28;20389;-76
2022/09/11 00:59:26;;;;;;;2.00;1.50;;;15.30;88.80;;;;;;5114833;28;20074;-77
2022/09/11 01:01:53;;;;;;;1.90;1.35;;;15.30;88.80;;;;;;5115374;28;20047;-78
2022/09/11 01:04:20;;;;;;;2.70;1.63;;;15.30;88.80;;;;;;5116621;28;20126;-77
2022/09/11 01:06:48;;;;;;;2.30;1.52;;;15.30;88.90;;;;;;5064282;28;20378;-78
2022/09/11 01:09:14;;;;;;;2.50;1.50;;;15.20;88.90;;;;;;5081596;28;20050;-77
2022/09/11 01:11:49;;;;;;;2.45;1.45;;;15.20;88.90;;;;;;5115230;28;20135;-77
2022/09/11 01:14:36;;;;;;;2.08;1.30;;;15.20;88.90;;;;;;5096402;28;20493;-76
2022/09/11 01:17:33;;;;;;;3.30;1.45;;;15.20;88.90;;;;;;5112809;28;20111;-76
2022/09/11 01:20:22;;;;;;;2.22;1.50;;;15.20;88.90;;;;;;5093095;28;20058;-78
2022/09/11 01:23:06;;;;;;;1.67;1.13;;;15.20;88.90;;;;;;5085562;28;20036;-80
2022/09/11 01:26:04;;;;;;;1.90;1.30;;;15.20;88.80;;;;;;5103364;28;20112;-78
2022/09/11 01:28:38;;;;;;;1.38;1.20;;;15.20;88.80;;;;;;5086202;28;20106;-79
2022/09/11 01:31:10;;;;;;;1.88;1.20;;;15.10;88.70;;;;;;5082212;28;20092;-79
2022/09/11 01:33:56;;;;;;;2.83;1.55;;;15.10;88.80;;;;;;5125136;28;20031;-77
2022/09/11 01:36:30;;;;;;;2.15;1.50;;;15.00;88.90;;;;;;5114028;28;20082;-76
2022/09/11 01:38:59;;;;;;;1.70;1.20;;;15.00;88.90;;;;;;5116102;28;20048;-77
2022/09/11 01:41:30;;;;;;;2.35;1.65;;;15.10;89.00;;;;;;5082761;28;20043;-78
2022/09/11 01:44:05;;;;;;;2.08;1.38;;;15.00;89.00;;;;;;5131388;28;20105;-77
2022/09/11 01:46:39;;;;;;;1.35;1.15;;;15.00;89.10;;;;;;5106208;28;20096;-76
2022/09/11 01:49:11;;;;;;;2.10;1.38;;;14.90;89.00;;;;;;5115020;28;20046;-77
2022/09/11 01:51:39;;;;;;;1.75;1.35;;;14.90;89.10;;;;;;5094173;28;20175;-79
2022/09/11 01:54:10;;;;;;;1.85;1.20;;;14.90;89.20;;;;;;5093784;28;20078;-80
2022/09/11 01:56:44;;;;;;;1.40;1.13;;;14.80;89.20;;;;;;5107259;28;20051;-81
2022/09/11 01:59:14;;;;;;;1.65;1.10;;;14.80;89.20;;;;;;5088767;28;20035;-79
2022/09/11 02:01:44;;;;;;;2.10;1.40;;;14.80;89.30;;;;;;5116306;28;20039;-80
2022/09/11 02:04:18;;;;;;;1.98;1.30;;;14.80;89.30;;;;;;5095785;28;20036;-80
2022/09/11 02:06:51;;;;;;;1.98;1.15;;;14.80;89.20;;;;;;5078667;28;20046;-77
2022/09/11 02:09:20;;;;;;;1.40;1.15;;;14.70;89.20;;;;;;5080885;28;20115;-77
2022/09/11 02:11:51;;;;;;;1.63;1.20;;;14.70;89.30;;;;;;5121722;28;20052;-77
2022/09/11 02:14:34;;;;;;;1.95;1.50;;;14.70;89.20;;;;;;5103672;28;20062;-76
2022/09/11 02:17:23;;;;;;;2.75;1.50;;;14.70;89.30;;;;;;5120641;28;20485;-78
2022/09/11 02:19:52;;;;;;;2.22;1.38;;;14.60;89.20;;;;;;5116367;28;20038;-77
2022/09/11 02:22:18;;;;;;;2.47;1.40;;;14.60;89.20;;;;;;5109968;28;20043;-78
2022/09/11 02:24:44;;;;;;;1.95;1.40;;;14.60;89.30;;;;;;5095309;28;20385;-78
2022/09/11 02:27:16;;;;;;;2.00;1.35;;;14.60;89.40;;;;;;5113518;28;20131;-78
2022/09/11 02:29:42;;;;;;;1.60;1.20;;;14.60;89.30;;;;;;5095323;28;20092;-79
2022/09/11 02:32:10;;;;;;;1.88;1.30;;;14.60;89.30;;;;;;5095156;28;20048;-78
2022/09/11 02:34:37;;;;;;;2.42;1.52;;;14.60;89.30;;;;;;5113513;28;20048;-78
2022/09/11 02:37:15;;;;;;;1.63;1.17;;;14.60;89.20;;;;;;5113314;28;20035;-78
2022/09/11 02:39:58;;;;;;;2.75;1.50;;;14.60;89.20;;;;;;5113375;28;20039;-78
2022/09/11 02:42:45;;;;;;;1.38;1.08;;;14.60;89.20;;;;;;5113407;28;20126;-78
2022/09/11 02:45:25;;;;;;;2.42;1.40;;;14.50;89.20;;;;;;5111124;28;20040;-78
2022/09/11 02:48:13;;;;;;;2.75;1.40;;;14.50;89.20;;;;;;5062179;28;20035;-78
2022/09/11 02:50:57;;;;;;;1.80;1.10;;;14.40;89.20;;;;;;5077616;28;20035;-78
2022/09/11 02:53:48;;;;;;;1.83;1.38;;;14.40;89.20;;;;;;5094033;28;20119;-78
2022/09/11 02:56:27;;;;;;;2.13;1.45;;;14.40;89.20;;;;;;5096021;28;20032;-78
2022/09/11 02:58:55;;;;;;;2.20;1.38;;;14.40;89.40;;;;;;5077614;28;20044;-78
2022/09/11 03:01:22;;;;;;;1.75;1.40;;;14.40;89.30;;;;;;5113021;28;20047;-78
2022/09/11 03:03:48;;;;;;;1.67;1.17;;;14.30;89.30;;;;;;5112736;28;20067;-78
2022/09/11 03:06:18;;;;;;;1.88;1.45;;;14.30;89.40;;;;;;5094667;28;20510;-78
2022/09/11 03:08:44;;;;;;;1.88;1.30;;;14.30;89.40;;;;;;5078319;28;20040;-78
2022/09/11 03:11:10;;;;;;;2.25;1.15;;;14.20;89.40;;;;;;5112621;28;20177;-78
2022/09/11 03:13:36;;;;;;;2.35;1.38;;;14.20;89.50;;;;;;5112590;28;20481;-78
2022/09/11 03:16:04;;;;;;;1.70;1.08;;;14.10;89.50;;;;;;5112475;28;20035;-78
2022/09/11 03:18:30;;;;;;;1.80;1.30;;;14.20;89.50;;;;;;5094737;28;20096;-78
2022/09/11 03:20:56;;;;;;;1.33;1.00;;;14.20;89.50;;;;;;5076830;28;20067;-78
2022/09/11 03:23:22;;;;;;;2.92;1.80;;;14.20;89.50;;;;;;5112134;28;20067;-78
2022/09/11 03:25:47;;;;;;;2.42;1.52;;;14.10;89.40;;;;;;5094165;28;20042;-78
2022/09/11 03:28:13;;;;;;;2.92;1.80;;;14.10;89.40;;;;;;5094097;28;20035;-79
2022/09/11 03:30:41;;;;;;;2.50;1.38;;;14.20;89.40;;;;;;5112370;28;20036;-78
2022/09/11 03:33:07;;;;;;;2.05;1.30;;;14.20;89.40;;;;;;5094543;28;20036;-79
2022/09/11 03:35:34;;;;;;;1.65;1.15;;;14.10;89.50;;;;;;5094803;28;20059;-79
2022/09/11 03:37:59;;;;;;;1.70;1.27;;;14.20;89.40;;;;;;5077621;28;20489;-79
2022/09/11 03:40:25;;;;;;;1.65;1.10;;;14.10;89.40;;;;;;5077474;28;20046;-79
2022/09/11 03:42:54;;;;;;;1.55;1.20;;;14.10;89.50;;;;;;5094293;28;20047;-79
2022/09/11 03:45:21;;;;;;;2.38;1.38;;;14.10;89.50;;;;;;5091023;28;20494;-79
2022/09/11 03:47:47;;;;;;;1.95;1.38;;;14.10;89.50;;;;;;5112240;28;20036;-79
2022/09/11 03:50:12;;;;;;;2.30;1.40;;;14.10;89.50;;;;;;5094549;28;20055;-79
2022/09/11 03:52:38;;;;;;;1.83;1.23;;;14.10;89.50;;;;;;5112980;28;20499;-79
2022/09/11 03:55:05;;;;;;;1.85;1.10;;;14.00;89.50;;;;;;5112516;28;20169;-79
2022/09/11 03:57:33;;;;;;;1.55;1.20;;;14.00;89.60;;;;;;5077897;28;20043;-79
2022/09/11 04:00:00;;;;;;;1.90;1.20;;;14.00;89.60;;;;;;5094125;28;20451;-79
2022/09/11 04:02:26;;;;;;;2.00;1.13;;;14.00;89.60;;;;;;5077711;28;20038;-79
2022/09/11 04:04:52;;;;;;;2.00;1.17;;;13.90;89.60;;;;;;5094320;28;20039;-79
2022/09/11 04:07:18;;;;;;;2.30;1.50;;;13.90;89.60;;;;;;5094101;28;20046;-79
2022/09/11 04:09:45;;;;;;;2.05;1.13;;;14.00;89.60;;;;;;5061225;28;20043;-79
2022/09/11 04:12:11;;;;;;;1.80;1.27;;;13.90;89.60;;;;;;5077652;28;20394;-79
2022/09/11 04:14:37;;;;;;;1.52;1.00;;;13.90;89.60;;;;;;5112512;28;20042;-79
2022/09/11 04:17:04;;;;;;;1.23;1.10;;;13.90;89.70;;;;;;5094164;28;20040;-79
2022/09/11 04:19:30;;;;;;;1.23;1.05;;;13.90;89.70;;;;;;5112291;28;20396;-79
2022/09/11 04:21:55;;;;;;;2.78;1.50;;;13.90;89.70;;;;;;5112261;28;20042;-79
2022/09/11 04:24:21;;;;;;;1.38;1.08;;;13.80;89.60;;;;;;5091966;28;20131;-79
2022/09/11 04:26:47;;;;;;;1.50;0.88;;;13.90;89.70;;;;;;5093137;28;20145;-79
2022/09/11 04:29:13;;;;;;;0.90;0.77;;;13.90;89.70;;;;;;5093952;28;20036;-79
2022/09/11 04:31:40;;;;;;;0.85;0.80;;;13.90;89.70;;;;;;5076925;28;20048;-79
2022/09/11 04:34:06;;;;;;;0.88;0.80;;;13.90;89.70;;;;;;5096692;28;20046;-79
2022/09/11 04:36:31;;;;;;;1.63;1.20;;;13.80;89.70;;;;;;5097480;28;20035;-79
2022/09/11 04:38:59;;;;;;;1.15;0.98;;;13.80;89.70;;;;;;5080362;28;20047;-79
2022/09/11 04:41:26;;;;;;;1.17;0.98;;;13.80;89.70;;;;;;5115482;28;20067;-79
2022/09/11 04:43:55;;;;;;;1.45;0.98;;;13.80;89.70;;;;;;5097363;28;20063;-79
2022/09/11 04:46:22;;;;;;;1.27;1.10;;;13.80;89.70;;;;;;5115568;28;20035;-79
2022/09/11 04:48:50;;;;;;;1.50;1.00;;;13.80;89.70;;;;;;5097763;28;20122;-79
2022/09/11 04:51:25;;;;;;;0.93;0.85;;;13.80;89.70;;;;;;5080323;28;20489;-79
2022/09/11 04:53:56;;;;;;;1.35;0.88;;;13.80;89.70;;;;;;5097012;28;20038;-79
2022/09/11 04:56:23;;;;;;;1.23;1.00;;;13.80;89.60;;;;;;5115487;28;20035;-79
2022/09/11 04:58:54;;;;;;;1.33;1.10;;;13.80;89.60;;;;;;5115374;28;20122;-79
2022/09/11 05:01:21;;;;;;;1.70;1.00;;;13.80;89.70;;;;;;5115403;28;20050;-79
2022/09/11 05:03:47;;;;;;;1.60;1.10;;;13.80;89.60;;;;;;5096511;28;20093;-79
2022/09/11 05:06:15;;;;;;;1.27;1.00;;;13.80;89.60;;;;;;5115385;28;20431;-79
2022/09/11 05:08:43;;;;;;;1.10;0.80;;;13.80;89.70;;;;;;5097129;28;20044;-79
2022/09/11 05:11:12;;;;;;;0.82;0.70;;;13.80;89.80;;;;;;5079821;28;20044;-79
2022/09/11 05:13:39;;;;;;;1.02;0.73;;;13.70;89.80;;;;;;5096840;28;20035;-79
2022/09/11 05:16:08;;;;;;;1.25;1.00;;;13.70;89.80;;;;;;5115359;28;20126;-79
2022/09/11 05:18:34;;;;;;;1.38;1.00;;;13.80;89.80;;;;;;5079787;28;20039;-80
2022/09/11 05:21:01;;;;;;;1.00;0.90;;;13.70;89.70;;;;;;5096971;28;20052;-79
2022/09/11 05:23:28;;;;;;;1.25;0.90;;;13.80;89.80;;;;;;5114835;28;20393;-79
2022/09/11 05:26:03;;;;;;;1.30;0.90;;;13.70;89.70;;;;;;5097233;28;20131;-79
2022/09/11 05:28:30;;;;;;;0.75;0.70;;;13.80;89.80;;;;;;5096949;28;20119;-80
2022/09/11 05:30:57;;;;;;;1.40;0.85;;;13.70;89.70;;;;;;5079672;28;20089;-79
2022/09/11 05:33:23;;;;;;;0.95;0.77;;;13.80;89.80;;;;;;5096316;28;20044;-79
2022/09/11 05:35:51;;;;;;;1.20;0.90;;;13.70;89.70;;;;;;5097007;28;20112;-79
2022/09/11 05:38:18;;;;;;;0.95;0.80;;;13.80;89.70;;;;;;5080264;28;20040;-79
2022/09/11 05:40:45;;;;;;;0.80;0.68;;;13.80;89.70;;;;;;5096608;28;20497;-79
2022/09/11 05:43:13;;;;;;;0.93;0.77;;;13.80;89.60;;;;;;5114620;28;20078;-80
2022/09/11 05:45:39;;;;;;;0.73;0.70;;;13.80;89.60;;;;;;5095160;28;20039;-79
2022/09/11 05:48:05;;;;;;;0.68;0.63;;;13.80;89.60;;;;;;5095596;28;20570;-80
2022/09/11 05:50:32;;;;;;;0.82;0.70;;;13.80;89.60;;;;;;5096027;28;20040;-79
2022/09/11 05:52:57;;;;;;;0.70;0.70;;;13.90;89.60;;;;;;5114238;28;20048;-79
2022/09/11 05:55:23;;;;;;;0.93;0.77;;;13.80;89.50;;;;;;5096288;28;20043;-79
2022/09/11 05:57:52;;;;;;;0.70;0.70;;;13.90;89.50;;;;;;5079473;28;20043;-79
2022/09/11 06:00:18;;;;;;;0.43;0.43;;;13.90;89.60;;;;;;5075473;28;20055;-79
2022/09/11 06:02:44;;;;;;;0.82;0.80;;;13.90;89.60;;;;;;5096653;28;20050;-79
2022/09/11 06:05:10;;;;;;;1.20;0.90;;;13.90;89.60;;;;;;5114366;28;20043;-80
2022/09/11 06:07:36;;;;;;;1.23;0.88;;;14.00;89.60;;;;;;5096448;28;20096;-79
2022/09/11 06:10:02;;;;;;;0.60;0.60;;;14.00;89.60;;;;;;5096173;28;20045;-79
2022/09/11 06:12:28;;;;;;;0.60;0.60;;;14.00;89.50;;;;;;5096201;28;20047;-79
2022/09/11 06:14:54;;;;;;;1.15;0.82;;;14.00;89.50;;;;;;5113963;28;20042;-79
2022/09/11 06:17:20;;;;;;;0.60;0.60;;;14.00;89.50;;;;;;5114254;28;20528;-79
2022/09/11 06:19:46;;;;;;;1.17;0.85;;;14.10;89.60;;;;;;5114047;28;20092;-79
2022/09/11 06:22:12;;;;;;;0.60;0.60;;;14.10;89.50;;;;;;5097485;28;20035;-79
2022/09/11 06:24:38;;;;;;;0.95;0.90;;;14.10;89.50;;;;;;5081061;28;20054;-80
2022/09/11 06:27:03;;;;;;;1.20;0.98;;;14.20;89.50;;;;;;5095812;28;20055;-80
2022/09/11 06:29:31;;;;;;;1.08;0.90;;;14.20;89.40;;;;;;5114017;28;20055;-79
2022/09/11 06:31:58;;;;;;;0.80;0.80;;;14.30;89.40;;;;;;5114177;28;20126;-79
2022/09/11 06:34:25;;;;;;;0.85;0.75;;;14.30;89.40;;;;;;5095979;28;20586;-80
2022/09/11 06:36:51;;;;;;;1.65;1.08;;;14.20;89.30;;;;;;5093547;28;20036;-79
2022/09/11 06:39:19;;;;;;;1.40;1.00;;;14.20;89.40;;;;;;5095858;28;20109;-80
2022/09/11 06:41:45;;;;;;;1.15;1.00;;;14.20;89.60;;;;;;5096008;28;20042;-79
2022/09/11 06:44:11;;;;;;;1.35;1.10;;;14.20;89.60;;;;;;5095469;28;20089;-80
2022/09/11 06:46:39;;;;;;;1.35;0.90;;;14.30;89.70;;;;;;5095421;28;20042;-80
2022/09/11 06:49:05;;;;;;;1.10;1.00;;;14.40;89.70;;;;;;5114039;28;20043;-80
2022/09/11 06:51:31;;;;;;;1.27;1.08;;;14.40;89.60;;;;;;5095894;28;20042;-80
2022/09/11 06:54:01;;;;;;;1.02;0.90;;;14.40;89.50;;;;;;5078680;28;20047;-80
2022/09/11 06:56:31;;;;;;;0.82;0.75;;;14.40;89.60;;;;;;5078562;28;20042;-80
2022/09/11 06:58:57;;;;;;;0.80;0.80;;;14.40;89.60;;;;;;5113102;28;20031;-80
2022/09/11 07:01:23;;;;;;;1.33;1.00;;;14.50;89.60;;;;;;5095583;28;20058;-80
2022/09/11 07:03:52;;;;;;;1.30;1.05;;;14.60;89.40;;;;;;5078222;28;20031;-80
2022/09/11 07:06:29;;;;;;;1.27;1.00;;;14.60;89.30;;;;;;5095116;28;20896;-80
2022/09/11 07:09:00;;;;;;;1.52;1.08;;;14.60;89.30;;;;;;5093658;28;20031;-80
2022/09/11 07:11:28;;;;;;;1.13;1.02;;;14.70;89.30;;;;;;5060536;28;20042;-80
2022/09/11 07:13:54;;;;;;;1.17;0.95;;;14.80;89.30;;;;;;5076059;28;20067;-80
2022/09/11 07:16:19;;;;;;;0.93;0.73;;;14.70;89.30;;;;;;5113009;28;20426;-80
2022/09/11 07:18:46;;;;;;;0.88;0.80;;;14.80;89.30;;;;;;5094846;28;20489;-80
2022/09/11 07:21:16;;;;;;;0.80;0.73;;;14.80;89.20;;;;;;5112833;28;20039;-80
2022/09/11 07:23:45;;;;;;;1.27;0.98;;;14.90;89.30;;;;;;5077784;28;20071;-80
2022/09/11 07:26:12;;;;;;;1.40;0.90;;;14.90;89.10;;;;;;5111444;28;20047;-80
2022/09/11 07:28:39;;;;;;;1.02;0.93;;;15.00;89.10;;;;;;5094780;28;20043;-80
2022/09/11 07:31:09;;;;;;;1.10;1.00;;;15.10;89.10;;;;;;5094752;28;20112;-80
2022/09/11 07:33:37;;;;;;;0.70;0.70;;;15.00;89.00;;;;;;5095556;28;20043;-80
2022/09/11 07:36:11;;;;;;;1.17;1.08;;;15.10;89.00;;;;;;5077696;28;20036;-80
2022/09/11 07:38:39;;;;;;;1.25;1.10;;;15.30;89.10;;;;;;5094451;28;20036;-80
2022/09/11 07:41:05;;;;;;;1.10;1.00;;;15.30;89.00;;;;;;5094862;28;20047;-81
2022/09/11 07:43:33;;;;;;;0.88;0.88;;;15.40;88.90;;;;;;5094445;28;20501;-80
2022/09/11 07:46:00;;;;;;;1.15;0.95;;;15.40;88.80;;;;;;5092883;28;20063;-81
2022/09/11 07:48:25;;;;;;;2.30;1.52;;;15.50;88.80;;;;;;5113166;28;20130;-80
2022/09/11 07:51:02;;;;;;;1.80;1.25;;;15.60;88.90;;;;;;5094264;28;20073;-81
2022/09/11 07:53:32;;;;;;;2.20;1.48;;;15.50;88.80;;;;;;5094692;28;20501;-81
2022/09/11 07:56:02;;;;;;;2.55;1.50;;;15.60;88.70;;;;;;5094987;28;20035;-80
2022/09/11 07:58:32;;;;;;;2.50;1.60;;;15.80;88.70;;;;;;5094524;28;20040;-81
2022/09/11 08:00:58;;;;;;;1.60;1.40;;;15.60;88.70;;;;;;5112420;28;20096;-80
2022/09/11 08:03:24;;;;;;;2.17;1.67;;;15.70;88.80;;;;;;5094751;28;20444;-80
2022/09/11 08:05:55;;;;;;;1.58;1.15;;;15.80;88.70;;;;;;5060819;28;20051;-80
2022/09/11 08:08:21;;;;;;;1.75;1.27;;;15.90;88.60;;;;;;5095993;28;20042;-80
2022/09/11 08:10:46;;;;;;;2.10;1.48;;;16.00;88.50;;;;;;5115997;28;20043;-79
2022/09/11 08:13:12;;;;;;;2.22;1.63;;;16.00;88.30;;;;;;5115980;28;20046;-79
2022/09/11 08:15:45;;;;;;;2.80;1.85;;;16.10;88.50;;;;;;5098128;28;20031;-79
2022/09/11 08:18:11;;;;;;;1.88;1.40;;;16.10;88.50;;;;;;5116778;28;20481;-80
2022/09/11 08:20:37;;;;;;;2.53;1.27;;;16.20;88.40;;;;;;5117093;28;20085;-80
2022/09/11 08:23:02;;;;;;;2.13;1.48;;;16.30;88.40;;;;;;5097494;28;20130;-81
2022/09/11 08:25:28;;;;;;;2.42;1.50;;;16.40;88.30;;;;;;5098284;28;20046;-80
2022/09/11 08:27:54;;;;;;;3.80;2.25;;;16.50;88.40;;;;;;5115715;28;20050;-82
2022/09/11 08:30:22;;;;;;;2.67;1.65;;;16.60;88.10;;;;;;5097678;28;20052;-83
2022/09/11 08:32:48;;;;;;;2.72;1.67;;;16.70;88.00;;;;;;5116038;28;20489;-83
2022/09/11 08:35:19;;;;;;;3.60;1.90;;;16.70;87.80;;;;;;5080368;28;20046;-82
2022/09/11 08:37:48;;;;;;;2.40;1.77;;;16.90;87.90;;;;;;5065117;28;20032;-83
2022/09/11 08:40:13;;;;;;;2.65;1.70;;;16.90;87.90;;;;;;5063492;28;20047;-82
2022/09/11 08:42:42;;;;;;;2.20;1.60;;;17.00;87.90;;;;;;5115135;28;20040;-80
2022/09/11 08:45:14;;;;;;;2.38;1.67;;;17.00;87.90;;;;;;5097282;28;20531;-80
2022/09/11 08:47:43;;;;;;;5.25;2.50;;;17.00;87.90;;;;;;5115618;28;20384;-79
2022/09/11 08:50:30;;;;;;;4.57;2.80;;;17.10;87.80;;;;;;5080886;28;20504;-82
2022/09/11 08:52:56;;;;;;;3.00;2.10;;;17.20;87.70;;;;;;5097175;28;20035;-81
2022/09/11 08:55:35;;;;;;;2.50;1.80;;;17.20;87.80;;;;;;5115355;28;20036;-83
2022/09/11 08:58:39;;;;;;;1.98;1.58;;;17.30;87.80;;;;;;5115957;28;20565;-81
2022/09/11 09:01:25;;;;;;;3.00;1.90;;;17.50;87.60;;;;;;5115327;28;20040;-81
2022/09/11 09:04:16;;;;;;;2.75;1.83;;;17.60;87.40;;;;;;5096978;28;20067;-81
2022/09/11 09:06:56;;;;;;;2.83;1.88;;;17.70;87.20;;;;;;5096800;28;20035;-81
2022/09/11 09:09:59;;;;;;;2.47;1.70;;;17.80;87.90;;;;;;5097888;28;20089;-81
2022/09/11 09:12:52;;;;;;;2.25;1.60;;;17.90;87.10;;;;;;5113813;28;20036;-79
2022/09/11 09:15:45;;;;;;;3.67;2.38;;;18.00;87.20;;;;;;5117117;28;20036;-79
2022/09/11 09:18:39;;;;;;;2.13;1.60;;;18.00;87.20;;;;;;5115327;28;20131;-79
2022/09/11 09:21:11;;;;;;;2.60;1.65;;;18.20;87.00;;;;;;5117951;28;20036;-79
2022/09/11 09:23:47;;;;;;;2.35;1.50;;;18.40;86.80;;;;;;5088422;28;20035;-78
2022/09/11 09:26:17;;;;;;;3.05;1.75;;;18.50;86.40;;;;;;5098269;28;20043;-77
2022/09/11 09:28:46;;;;;;;3.53;2.30;;;18.60;86.10;;;;;;5122952;28;20054;-80
2022/09/11 09:31:16;;;;;;;2.70;1.90;;;18.80;86.00;;;;;;5121349;28;20077;-79
2022/09/11 09:33:51;;;;;;;2.83;1.95;;;18.90;85.80;;;;;;5104317;28;20051;-80
2022/09/11 09:36:30;;;;;;;4.35;2.63;;;18.90;85.80;;;;;;5097026;28;20077;-80
2022/09/11 09:38:57;;;;;;;3.75;2.45;;;19.10;85.60;;;;;;5067105;28;20135;-80
2022/09/11 09:41:52;;;;;;;4.05;2.53;;;18.90;85.50;;;;;;5116005;28;20044;-82
2022/09/11 09:45:00;;;;;;;2.38;1.73;;;19.00;85.70;;;;;;5100990;28;20039;-82
2022/09/11 09:47:26;;;;;;;3.63;2.40;;;19.20;85.60;;;;;;5082158;28;20050;-79
2022/09/11 09:49:52;;;;;;;3.17;2.25;;;19.20;85.30;;;;;;5062622;28;20036;-81
2022/09/11 09:52:21;;;;;;;3.10;1.92;;;19.20;85.40;;;;;;5063153;28;20051;-81
2022/09/11 09:54:55;;;;;;;2.83;2.03;;;19.00;85.40;;;;;;5097939;28;20039;-82
2022/09/11 09:57:25;;;;;;;2.08;1.77;;;19.20;85.60;;;;;;5063272;28;20097;-81
2022/09/11 09:59:56;;;;;;;2.72;1.70;;;19.30;85.60;;;;;;5097697;28;20044;-82
2022/09/11 10:02:44;;;;;;;2.70;1.90;;;19.30;85.40;;;;;;5051307;28;20056;-78
2022/09/11 10:05:38;;;;;;;1.92;1.40;;;19.30;85.30;;;;;;5034864;28;20048;-80
2022/09/11 10:08:06;;;;;;;3.45;2.17;;;19.30;85.30;;;;;;5020856;28;20048;-78
2022/09/11 10:10:36;;;;;;;1.73;1.40;;;19.30;85.20;;;;;;5051803;28;20048;-78
2022/09/11 10:13:19;;;;;;;2.03;1.70;;;19.30;85.10;;;;;;5052300;28;20084;-76
2022/09/11 10:15:47;;;;;;;2.78;2.20;;;19.30;85.30;;;;;;5035043;28;20040;-77
2022/09/11 10:18:31;;;;;;;3.17;2.17;;;19.30;85.10;;;;;;5051917;28;20032;-76
2022/09/11 10:21:19;;;;;;;2.22;1.60;;;19.30;85.00;;;;;;5051429;28;20522;-76
2022/09/11 10:23:50;;;;;;;3.10;2.08;;;19.30;85.30;;;;;;5034388;28;20510;-77
2022/09/11 10:26:24;;;;;;;2.30;1.70;;;19.30;85.20;;;;;;5051501;28;20498;-78
2022/09/11 10:28:52;;;;;;;1.98;1.60;;;19.40;85.10;;;;;;5035264;28;20037;-76
2022/09/11 10:31:18;;;;;;;1.75;1.40;;;19.40;84.80;;;;;;5050887;28;20045;-77
2022/09/11 10:33:59;;;;;;;1.77;1.50;;;19.50;84.60;;;;;;5091023;28;20066;-80
2022/09/11 10:36:27;;;;;;;2.28;1.83;;;19.60;84.40;;;;;;5095235;28;20398;-80
2022/09/11 10:38:55;;;;;;;2.70;2.00;;;19.70;84.20;;;;;;5095240;28;20118;-79
2022/09/11 10:41:25;;;;;;;2.85;2.05;;;19.80;83.70;;;;;;5080068;28;20043;-75
2022/09/11 10:44:05;;;;;;;2.58;1.98;;;19.80;83.30;;;;;;5113565;28;20043;-75
2022/09/11 10:46:37;;;;;;;2.55;1.90;;;19.80;83.10;;;;;;5113879;28;20035;-74
2022/09/11 10:49:18;;;;;;;2.38;1.75;;;19.90;83.00;;;;;;5096244;28;20043;-73
2022/09/11 10:52:02;;;;;;;2.92;1.90;;;20.00;82.90;;;;;;5095785;28;20067;-73
2022/09/11 10:54:51;;;;;;;3.05;2.20;;;19.90;82.50;;;;;;5113310;28;20043;-76
2022/09/11 10:57:28;;;;;;;3.20;1.77;;;19.90;82.50;;;;;;5113962;28;20460;-74
2022/09/11 11:00:05;;;;;;;2.03;1.58;;;19.90;82.80;;;;;;5112703;28;20047;-74
2022/09/11 11:02:33;;;;;;;1.50;1.40;;;19.90;82.80;;;;;;5097380;28;20044;-78
2022/09/11 11:05:07;;;;;;;2.30;1.70;;;20.00;82.90;;;;;;5115045;28;20035;-75
2022/09/11 11:07:53;;;;;;;2.10;1.40;;;20.20;82.50;;;;;;5113623;28;20176;-77
2022/09/11 11:10:55;;;;;;;2.00;1.50;;;20.20;82.20;;;;;;5111581;28;20122;-76
2022/09/11 11:13:51;;;;;;;1.75;1.42;;;20.20;82.00;;;;;;5112924;28;20054;-76
2022/09/11 11:16:38;;;;;;;2.00;1.40;;;20.20;82.20;;;;;;5099728;28;20092;-75
2022/09/11 11:19:34;;;;;;;3.03;1.50;;;20.20;82.30;;;;;;5093121;28;20039;-77
2022/09/11 11:22:33;;;;;;;1.17;1.00;;;20.20;82.20;;;;;;5112246;28;20047;-76
2022/09/11 11:25:26;;;;;;;0.90;0.80;;;20.20;82.30;;;;;;5112060;28;20039;-76
2022/09/11 11:28:24;;;;;;;1.42;1.30;;;20.20;82.40;;;;;;5111252;28;20050;-76
2022/09/11 11:31:10;;;;;;;1.20;1.10;;;20.20;82.30;;;;;;5111061;28;20042;-76
2022/09/11 11:33:55;;;;;;;2.05;1.15;;;20.50;82.00;;;;;;5112697;28;20044;-76
2022/09/11 11:36:45;;;;;;;1.63;1.40;;;20.70;81.50;;;;;;5096290;28;20120;-75
2022/09/11 11:39:24;;;;;;;1.55;1.20;;;20.80;80.90;;;;;;5112457;28;20498;-76
2022/09/11 11:42:09;;;;;;;2.00;1.50;;;20.80;80.70;;;;;;5113114;28;20115;-75
2022/09/11 11:44:47;;;;;;;1.40;1.25;;;20.80;80.80;;;;;;5095395;28;20040;-75
2022/09/11 11:47:15;;;;;;;1.70;1.45;;;20.80;81.00;;;;;;5116788;28;20040;-75
2022/09/11 11:49:54;;;;;;;1.38;1.25;;;20.80;81.10;;;;;;5116614;28;20044;-76
2022/09/11 11:52:37;;;;;;;2.17;1.67;;;20.70;81.10;;;;;;5116469;28;20038;-76
2022/09/11 11:55:19;;;;;;;2.08;1.70;;;20.70;81.10;;;;;;5115721;28;20409;-76
2022/09/11 11:58:16;;;;;;;1.73;1.10;;;20.70;81.10;;;;;;5116545;28;20036;-76
2022/09/11 12:00:47;;;;;;;1.05;1.02;;;20.70;81.20;;;;;;5094957;28;20402;-76
2022/09/11 12:03:23;;;;;;;1.63;1.00;;;20.80;81.10;;;;;;5115080;28;20126;-76
2022/09/11 12:05:49;;;;;;;1.25;0.88;;;21.00;80.90;;;;;;5097666;28;20054;-76
2022/09/11 12:08:15;;;;;;;1.23;1.13;;;21.10;80.60;;;;;;5080678;28;20401;-78
2022/09/11 12:10:55;;;;;;;1.77;1.20;;;21.30;80.30;;;;;;5116579;28;20038;-79
2022/09/11 12:13:28;;;;;;;2.15;1.50;;;21.50;79.50;;;;;;5097152;28;20039;-77
2022/09/11 12:16:13;;;;;;;1.83;1.45;;;21.60;79.00;;;;;;5115968;28;20035;-78
2022/09/11 12:18:50;;;;;;;1.60;1.42;;;21.40;79.10;;;;;;5097545;28;20054;-76
2022/09/11 12:21:37;;;;;;;1.20;1.10;;;21.30;79.40;;;;;;5115780;28;20043;-77
2022/09/11 12:24:13;;;;;;;1.10;1.00;;;21.40;79.70;;;;;;5067871;28;20058;-75
2022/09/11 12:26:39;;;;;;;3.50;1.40;;;21.50;79.30;;;;;;5115633;28;20043;-74
2022/09/11 12:29:39;;;;;;;1.70;1.30;;;21.60;79.00;;;;;;5115492;28;20558;-75
2022/09/11 12:32:21;;;;;;;2.35;1.35;;;21.60;78.70;;;;;;5115424;28;20563;-72
2022/09/11 12:35:12;;;;;;;1.10;1.00;;;21.50;78.80;;;;;;5114867;28;20115;-73
2022/09/11 12:37:38;;;;;;;0.90;0.90;;;21.70;79.10;;;;;;5115456;28;20039;-73
2022/09/11 12:40:31;;;;;;;1.08;0.98;;;21.80;78.90;;;;;;5115850;28;20110;-74
2022/09/11 12:43:19;;;;;;;0.80;0.80;;;21.90;78.60;;;;;;5116011;28;20044;-74
2022/09/11 12:45:47;;;;;;;0.80;0.80;;;22.00;78.50;;;;;;5113960;28;20127;-75
2022/09/11 12:48:19;;;;;;;0.80;0.80;;;22.00;78.40;;;;;;5115416;28;20043;-74
2022/09/11 12:50:50;;;;;;;0.93;0.93;;;22.10;78.20;;;;;;5115150;28;20104;-74
2022/09/11 12:53:22;;;;;;;1.00;0.90;;;22.20;78.10;;;;;;5113636;28;20047;-74
2022/09/11 12:56:06;;;;;;;1.75;1.30;;;22.30;78.00;;;;;;5113473;28;20028;-75
2022/09/11 12:58:37;;;;;;;1.58;1.38;;;22.30;77.60;;;;;;5115116;28;20070;-74
2022/09/11 13:01:21;;;;;;;1.83;1.17;;;22.40;77.40;;;;;;5113891;28;20043;-76
2022/09/11 13:04:15;;;;;;;1.20;1.10;;;22.40;77.30;;;;;;5119421;28;20066;-75
2022/09/11 13:06:46;;;;;;;1.02;0.90;;;22.30;77.40;;;;;;5124180;28;20065;-76
2022/09/11 13:09:21;;;;;;;0.90;0.90;;;22.30;77.70;;;;;;5123883;28;20038;-75
2022/09/11 13:11:50;;;;;;;0.90;0.90;;;22.30;77.70;;;;;;5107114;28;20164;-76
2022/09/11 13:14:44;;;;;;;0.90;0.90;;;22.40;77.60;;;;;;5126023;28;20035;-76